createdAt,value
2017-12-12T00:02:31.482Z,100.00
2017-12-12T00:05:08.086Z,100.00
2017-12-12T00:07:42.962Z,100.00
2017-12-12T00:10:17.414Z,100.00
2017-12-12T00:12:51.905Z,100.00
2017-12-12T00:15:26.298Z,100.00
2017-12-12T00:18:00.744Z,100.00
2017-12-12T00:20:35.354Z,100.00
2017-12-12T00:23:09.750Z,100.00
2017-12-12T00:25:45.746Z,100.00
2017-12-12T00:28:20.873Z,100.00
2017-12-12T00:30:55.378Z,100.00
2017-12-12T00:33:30.235Z,100.00
2017-12-12T00:36:04.995Z,100.00
2017-12-12T00:38:39.934Z,100.00
2017-12-12T00:41:14.410Z,100.00
2017-12-12T00:43:49.119Z,100.00
2017-12-12T00:46:23.532Z,100.00
2017-12-12T00:48:58.047Z,100.00
2017-12-12T00:51:32.535Z,100.00
2017-12-12T00:54:07.250Z,100.00
2017-12-12T00:56:41.638Z,100.00
2017-12-12T00:59:16.179Z,100.00
2017-12-12T01:01:51.352Z,100.00
2017-12-12T01:04:26.014Z,100.00
2017-12-12T01:07:00.527Z,100.00
2017-12-12T01:09:35.044Z,100.00
2017-12-12T01:12:09.438Z,100.00
2017-12-12T01:14:43.995Z,100.00
2017-12-12T01:17:18.446Z,100.00
2017-12-12T01:19:52.827Z,100.00
2017-12-12T01:22:28.688Z,100.00
2017-12-12T01:27:43.972Z,100.00
2017-12-12T01:30:18.434Z,100.00
2017-12-12T01:32:52.979Z,100.00
2017-12-12T01:35:27.435Z,100.00
2017-12-12T01:38:01.839Z,100.00
2017-12-12T01:40:35.905Z,100.00
2017-12-12T01:43:09.979Z,100.00
2017-12-12T01:45:44.046Z,100.00
2017-12-12T01:48:18.622Z,100.00
2017-12-12T01:50:53.657Z,100.00
2017-12-12T01:53:28.194Z,100.00
2017-12-12T01:56:02.259Z,100.00
2017-12-12T01:58:37.069Z,100.00
2017-12-12T02:01:12.878Z,100.00
2017-12-12T02:03:49.127Z,100.00
2017-12-12T02:06:23.916Z,100.00
2017-12-12T02:08:58.321Z,100.00
2017-12-12T02:11:32.743Z,100.00
2017-12-12T02:14:07.334Z,100.00
2017-12-12T02:16:41.379Z,100.00
2017-12-12T02:19:15.476Z,100.00
2017-12-12T02:21:50.424Z,100.00
2017-12-12T02:24:24.736Z,100.00
2017-12-12T02:26:58.994Z,100.00
2017-12-12T02:29:33.185Z,100.00
2017-12-12T02:32:07.232Z,100.00
2017-12-12T02:34:41.578Z,100.00
2017-12-12T02:37:15.690Z,100.00
2017-12-12T02:39:49.907Z,100.00
2017-12-12T02:42:24.747Z,100.00
2017-12-12T02:44:59.618Z,100.00
2017-12-12T02:47:33.890Z,100.00
2017-12-12T02:50:13.278Z,100.00
2017-12-12T02:52:47.448Z,100.00
2017-12-12T02:55:21.550Z,100.00
2017-12-12T02:57:55.883Z,100.00
2017-12-12T03:00:30.947Z,100.00
2017-12-12T03:03:05.067Z,100.00
2017-12-12T03:05:39.288Z,100.00
2017-12-12T03:08:13.414Z,100.00
2017-12-12T03:10:48.343Z,100.00
2017-12-12T03:13:22.493Z,100.00
2017-12-12T03:15:56.738Z,100.00
2017-12-12T03:18:30.878Z,100.00
2017-12-12T03:21:05.079Z,100.00
2017-12-12T03:23:39.319Z,100.00
2017-12-12T03:26:13.434Z,100.00
2017-12-12T03:28:47.645Z,100.00
2017-12-12T03:31:22.789Z,100.00
2017-12-12T03:33:57.056Z,100.00
2017-12-12T03:36:31.907Z,100.00
2017-12-12T03:39:06.162Z,100.00
2017-12-12T03:41:40.582Z,100.00
2017-12-12T03:44:15.126Z,61.25
2017-12-12T03:46:49.244Z,61.61
2017-12-12T03:49:23.396Z,62.20
2017-12-12T03:51:57.435Z,62.43
2017-12-12T03:54:32.308Z,62.79
2017-12-12T03:57:06.833Z,63.07
2017-12-12T03:59:41.537Z,63.27
2017-12-12T04:02:15.719Z,63.36
2017-12-12T04:04:50.734Z,63.73
2017-12-12T04:07:24.859Z,64.14
2017-12-12T04:09:58.901Z,64.14
2017-12-12T04:12:33.298Z,64.39
2017-12-12T04:15:13.868Z,64.47
2017-12-12T04:17:48.310Z,64.39
2017-12-12T04:20:22.470Z,64.67
2017-12-12T04:22:56.515Z,65.07
2017-12-12T04:25:30.525Z,65.51
2017-12-12T04:28:04.748Z,65.75
2017-12-12T04:30:39.287Z,66.12
2017-12-12T04:33:13.710Z,66.55
2017-12-12T04:35:48.254Z,67.04
2017-12-12T04:38:22.402Z,67.68
2017-12-12T04:40:58.925Z,68.08
2017-12-12T04:43:33.750Z,68.51
2017-12-12T04:46:07.902Z,69.22
2017-12-12T04:48:42.002Z,70.26
2017-12-12T04:51:16.106Z,69.91
2017-12-12T04:53:50.394Z,70.08
2017-12-12T04:56:24.810Z,70.15
2017-12-12T04:58:59.861Z,70.26
2017-12-12T05:01:34.193Z,71.38
2017-12-12T05:04:08.223Z,71.82
2017-12-12T05:06:42.654Z,73.18
2017-12-12T05:09:16.781Z,76.54
2017-12-12T05:11:50.881Z,77.65
2017-12-12T05:14:25.086Z,77.57
2017-12-12T05:16:59.216Z,77.73
2017-12-12T05:19:33.309Z,77.78
2017-12-12T05:22:07.339Z,77.78
2017-12-12T05:24:41.602Z,77.73
2017-12-12T05:27:15.994Z,77.87
2017-12-12T05:29:50.439Z,77.33
2017-12-12T05:32:24.854Z,77.74
2017-12-12T05:34:58.893Z,77.99
2017-12-12T05:37:33.945Z,78.10
2017-12-12T05:40:08.756Z,77.81
2017-12-12T05:42:42.914Z,77.38
2017-12-12T05:45:17.013Z,77.38
2017-12-12T05:47:51.199Z,77.41
2017-12-12T05:50:25.254Z,77.55
2017-12-12T05:53:00.421Z,76.51
2017-12-12T05:55:34.453Z,76.47
2017-12-12T05:58:08.536Z,76.76
2017-12-12T06:00:42.616Z,75.65
2017-12-12T06:03:17.281Z,75.11
2017-12-12T06:05:51.686Z,75.32
2017-12-12T06:08:25.896Z,74.77
2017-12-12T06:11:01.078Z,74.54
2017-12-12T06:13:35.802Z,74.71
2017-12-12T06:16:10.470Z,74.08
2017-12-12T06:18:45.062Z,74.04
2017-12-12T06:21:19.375Z,73.36
2017-12-12T06:23:53.511Z,73.27
2017-12-12T06:26:27.961Z,72.91
2017-12-12T06:29:03.031Z,73.08
2017-12-12T06:31:37.071Z,72.99
2017-12-12T06:34:12.134Z,72.57
2017-12-12T06:36:46.658Z,72.78
2017-12-12T06:39:20.852Z,72.91
2017-12-12T06:41:55.647Z,72.34
2017-12-12T06:44:29.880Z,71.88
2017-12-12T06:47:04.379Z,71.90
2017-12-12T06:49:43.835Z,71.40
2017-12-12T06:52:18.140Z,71.90
2017-12-12T06:54:54.035Z,70.54
2017-12-12T06:57:29.015Z,71.18
2017-12-12T07:02:43.003Z,71.80
2017-12-12T07:05:17.654Z,71.28
2017-12-12T07:07:52.649Z,69.43
2017-12-12T07:10:27.486Z,69.14
2017-12-12T07:13:02.236Z,70.19
2017-12-12T07:15:36.474Z,69.36
2017-12-12T07:18:10.681Z,69.60
2017-12-12T07:20:45.970Z,69.72
2017-12-12T07:23:21.107Z,69.33
2017-12-12T07:25:55.494Z,69.75
2017-12-12T07:28:29.906Z,68.94
2017-12-12T07:31:04.361Z,69.60
2017-12-12T07:33:38.526Z,70.14
2017-12-12T07:36:12.929Z,70.01
2017-12-12T07:38:47.425Z,69.25
2017-12-12T07:41:21.958Z,69.36
2017-12-12T07:43:56.491Z,68.99
2017-12-12T07:46:30.890Z,69.02
2017-12-12T07:49:05.286Z,69.24
2017-12-12T07:51:39.972Z,69.18
2017-12-12T07:54:14.370Z,68.28
2017-12-12T07:56:49.169Z,68.00
2017-12-12T07:59:24.177Z,67.74
2017-12-12T08:01:58.770Z,68.25
2017-12-12T08:04:33.414Z,68.18
2017-12-12T08:07:07.702Z,67.67
2017-12-12T08:09:41.817Z,68.44
2017-12-12T08:12:17.287Z,68.93
2017-12-12T08:14:51.860Z,67.71
2017-12-12T08:17:26.310Z,68.26
2017-12-12T08:20:00.804Z,68.11
2017-12-12T08:22:34.866Z,67.29
2017-12-12T08:25:14.352Z,65.95
2017-12-12T08:27:49.833Z,66.85
2017-12-12T08:30:24.371Z,66.46
2017-12-12T08:32:58.877Z,67.19
2017-12-12T08:35:34.001Z,67.97
2017-12-12T08:38:08.494Z,66.99
2017-12-12T08:40:42.923Z,68.17
2017-12-12T08:43:17.414Z,69.02
2017-12-12T08:45:51.861Z,69.51
2017-12-12T08:48:26.335Z,69.10
2017-12-12T08:51:00.766Z,69.33
2017-12-12T08:53:37.606Z,68.87
2017-12-12T08:56:12.400Z,68.76
2017-12-12T08:58:47.225Z,68.91
2017-12-12T09:01:21.738Z,69.22
2017-12-12T09:03:56.990Z,68.57
2017-12-12T09:06:31.377Z,68.30
2017-12-12T09:09:05.309Z,68.31
2017-12-12T09:11:39.434Z,67.37
2017-12-12T09:14:13.878Z,67.35
2017-12-12T09:16:48.343Z,66.72
2017-12-12T09:19:22.712Z,66.30
2017-12-12T09:21:57.290Z,66.24
2017-12-12T09:24:31.622Z,66.70
2017-12-12T09:27:06.118Z,66.88
2017-12-12T09:29:40.478Z,66.12
2017-12-12T09:32:14.898Z,65.38
2017-12-12T09:34:49.303Z,65.61
2017-12-12T09:37:24.836Z,66.30
2017-12-12T09:39:59.425Z,64.77
2017-12-12T09:42:33.582Z,64.26
2017-12-12T09:45:13.518Z,65.04
2017-12-12T09:47:48.112Z,65.49
2017-12-12T09:50:22.539Z,64.38
2017-12-12T09:52:57.253Z,64.27
2017-12-12T09:55:31.798Z,64.11
2017-12-12T09:58:08.423Z,63.87
2017-12-12T10:00:42.609Z,63.45
2017-12-12T10:03:17.089Z,64.35
2017-12-12T10:05:51.570Z,64.04
2017-12-12T10:08:26.138Z,64.50
2017-12-12T10:11:00.486Z,64.23
2017-12-12T10:13:35.039Z,63.97
2017-12-12T10:16:09.085Z,63.87
2017-12-12T10:18:43.695Z,62.88
2017-12-12T10:21:18.179Z,62.11
2017-12-12T10:23:53.667Z,61.86
2017-12-12T10:26:29.436Z,61.68
2017-12-12T10:29:03.855Z,61.64
2017-12-12T10:31:38.373Z,61.09
2017-12-12T10:34:13.346Z,61.48
2017-12-12T10:36:47.288Z,60.55
2017-12-12T10:39:21.778Z,60.09
2017-12-12T10:41:55.574Z,60.88
2017-12-12T10:44:29.721Z,60.45
2017-12-12T10:47:03.632Z,60.74
2017-12-12T10:49:38.838Z,60.87
2017-12-12T10:52:13.081Z,60.08
2017-12-12T10:54:47.466Z,60.13
2017-12-12T10:57:24.734Z,60.51
2017-12-12T10:59:59.194Z,59.83
2017-12-12T11:02:33.325Z,59.88
2017-12-12T11:05:13.889Z,59.43
2017-12-12T11:07:48.452Z,59.63
2017-12-12T11:10:22.868Z,59.05
2017-12-12T11:12:57.419Z,58.47
2017-12-12T11:15:32.274Z,58.43
2017-12-12T11:18:06.878Z,58.25
2017-12-12T11:20:41.218Z,58.44
2017-12-12T11:23:15.657Z,58.47
2017-12-12T11:25:50.693Z,58.12
2017-12-12T11:28:25.161Z,58.04
2017-12-12T11:30:59.748Z,57.84
2017-12-12T11:33:33.973Z,57.58
2017-12-12T11:36:08.403Z,57.79
2017-12-12T11:38:42.957Z,57.48
2017-12-12T11:41:17.406Z,57.83
2017-12-12T11:43:52.452Z,58.17
2017-12-12T11:46:26.975Z,58.49
2017-12-12T11:49:01.363Z,58.10
2017-12-12T11:51:35.591Z,58.55
2017-12-12T11:54:10.085Z,57.84
2017-12-12T11:56:44.194Z,58.41
2017-12-12T11:59:19.890Z,58.82
2017-12-12T12:01:53.929Z,58.97
2017-12-12T12:04:28.455Z,58.99
2017-12-12T12:07:02.830Z,58.80
2017-12-12T12:09:38.145Z,58.85
2017-12-12T12:12:12.406Z,58.45
2017-12-12T12:14:46.812Z,58.34
2017-12-12T12:17:21.297Z,58.55
2017-12-12T12:19:55.855Z,58.51
2017-12-12T12:22:29.956Z,57.99
2017-12-12T12:27:44.346Z,57.03
2017-12-12T12:30:18.680Z,57.76
2017-12-12T12:32:52.842Z,58.09
2017-12-12T12:35:27.470Z,58.67
2017-12-12T12:38:01.515Z,59.07
2017-12-12T12:40:35.562Z,59.49
2017-12-12T12:43:10.094Z,59.67
2017-12-12T12:45:44.535Z,60.08
2017-12-12T12:48:18.703Z,58.91
2017-12-12T12:50:53.430Z,58.81
2017-12-12T12:53:27.891Z,58.28
2017-12-12T12:56:02.315Z,58.60
2017-12-12T12:58:36.866Z,58.61
2017-12-12T13:01:11.246Z,58.44
2017-12-12T13:03:45.790Z,58.34
2017-12-12T13:06:20.366Z,58.97
2017-12-12T13:08:54.881Z,59.38
2017-12-12T13:11:29.242Z,59.21
2017-12-12T13:14:03.659Z,59.68
2017-12-12T13:16:38.051Z,61.28
2017-12-12T13:19:12.549Z,62.44
2017-12-12T13:21:46.902Z,63.33
2017-12-12T13:24:21.430Z,63.17
2017-12-12T13:26:55.869Z,63.12
2017-12-12T13:29:30.259Z,62.24
2017-12-12T13:32:05.072Z,61.27
2017-12-12T13:34:39.558Z,61.39
2017-12-12T13:37:14.726Z,61.33
2017-12-12T13:39:50.461Z,61.12
2017-12-12T13:42:25.319Z,61.53
2017-12-12T13:44:59.905Z,61.59
2017-12-12T13:47:34.342Z,61.54
2017-12-12T13:50:10.232Z,61.73
2017-12-12T13:52:44.798Z,61.32
2017-12-12T13:55:19.218Z,60.94
2017-12-12T13:57:53.668Z,61.25
2017-12-12T14:00:28.119Z,61.13
2017-12-12T14:03:04.302Z,60.72
2017-12-12T14:05:38.779Z,60.71
2017-12-12T14:08:13.251Z,60.84
2017-12-12T14:10:47.721Z,60.87
2017-12-12T14:13:22.258Z,60.76
2017-12-12T14:15:56.413Z,61.11
2017-12-12T14:18:30.892Z,61.28
2017-12-12T14:21:05.379Z,61.09
2017-12-12T14:23:42.532Z,60.72
2017-12-12T14:26:17.069Z,59.93
2017-12-12T14:28:52.350Z,59.68
2017-12-12T14:31:26.899Z,59.35
2017-12-12T14:34:01.398Z,58.71
2017-12-12T14:36:35.832Z,57.72
2017-12-12T14:39:11.097Z,57.29
2017-12-12T14:41:45.700Z,57.17
2017-12-12T14:44:20.194Z,56.69
2017-12-12T14:46:54.744Z,56.07
2017-12-12T14:49:29.226Z,56.11
2017-12-12T14:52:03.719Z,55.96
2017-12-12T14:54:38.305Z,55.54
2017-12-12T14:57:12.758Z,55.66
2017-12-12T14:59:47.162Z,55.89
2017-12-12T15:02:21.667Z,56.08
2017-12-12T15:04:56.740Z,56.48
2017-12-12T15:07:31.386Z,57.00
2017-12-12T15:10:15.066Z,57.48
2017-12-12T15:12:49.562Z,58.35
2017-12-12T15:15:24.939Z,58.86
2017-12-12T15:17:59.962Z,59.22
2017-12-12T15:20:34.561Z,59.79
2017-12-12T15:23:09.056Z,59.92
2017-12-12T15:25:43.628Z,60.25
2017-12-12T15:28:18.188Z,60.64
2017-12-12T15:30:52.558Z,60.76
2017-12-12T15:33:27.037Z,61.03
2017-12-12T15:36:02.468Z,61.68
2017-12-12T15:38:37.757Z,62.00
2017-12-12T15:41:14.013Z,62.20
2017-12-12T15:43:49.391Z,62.19
2017-12-12T15:46:25.012Z,62.47
2017-12-12T15:48:59.571Z,61.97
2017-12-12T15:51:33.973Z,61.97
2017-12-12T15:54:09.486Z,61.73
2017-12-12T15:56:44.398Z,61.48
2017-12-12T15:59:19.462Z,61.60
2017-12-12T16:01:53.943Z,61.57
2017-12-12T16:04:29.018Z,61.40
2017-12-12T16:07:05.799Z,61.35
2017-12-12T16:09:41.218Z,61.46
2017-12-12T16:12:15.610Z,61.37
2017-12-12T16:14:50.018Z,61.59
2017-12-12T16:17:24.395Z,61.52
2017-12-12T16:19:59.833Z,61.87
2017-12-12T16:22:37.342Z,61.86
2017-12-12T16:25:14.126Z,61.69
2017-12-12T16:27:49.325Z,61.57
2017-12-12T16:30:23.755Z,61.12
2017-12-12T16:32:59.069Z,61.13
2017-12-12T16:35:33.277Z,60.97
2017-12-12T16:38:07.442Z,60.72
2017-12-12T16:40:41.625Z,60.55
2017-12-12T16:43:16.230Z,60.80
2017-12-12T16:45:50.846Z,59.91
2017-12-12T16:48:25.334Z,60.04
2017-12-12T16:50:59.779Z,59.84
2017-12-12T16:53:34.975Z,59.26
2017-12-12T16:56:09.454Z,58.82
2017-12-12T16:58:44.000Z,58.35
2017-12-12T17:01:18.707Z,57.98
2017-12-12T17:03:53.338Z,58.07
2017-12-12T17:06:27.954Z,58.21
2017-12-12T17:09:02.433Z,57.78
2017-12-12T17:11:36.952Z,58.16
2017-12-12T17:14:11.471Z,57.65
2017-12-12T17:16:45.846Z,57.31
2017-12-12T17:19:20.324Z,57.24
2017-12-12T17:21:55.868Z,57.54
2017-12-12T17:24:30.234Z,57.56
2017-12-12T17:27:04.645Z,57.62
2017-12-12T17:29:41.107Z,57.90
2017-12-12T17:32:16.427Z,57.81
2017-12-12T17:34:52.679Z,57.92
2017-12-12T17:37:27.225Z,58.08
2017-12-12T17:40:01.777Z,58.40
2017-12-12T17:42:36.280Z,58.05
2017-12-12T17:45:11.745Z,58.16
2017-12-12T17:47:46.121Z,57.77
2017-12-12T17:50:20.590Z,57.21
2017-12-12T17:52:55.029Z,57.50
2017-12-12T17:55:29.447Z,57.65
2017-12-12T17:58:03.939Z,57.70
2017-12-12T18:00:38.331Z,57.46
2017-12-12T18:03:12.824Z,57.57
2017-12-12T18:05:47.949Z,57.74
2017-12-12T18:08:22.434Z,57.88
2017-12-12T18:10:57.123Z,58.19
2017-12-12T18:13:31.752Z,58.26
2017-12-12T18:16:06.344Z,58.48
2017-12-12T18:18:43.302Z,58.79
2017-12-12T18:21:18.734Z,58.78
2017-12-12T18:23:53.333Z,59.02
2017-12-12T18:26:27.830Z,58.75
2017-12-12T18:29:02.926Z,59.11
2017-12-12T18:31:38.554Z,59.27
2017-12-12T18:34:13.638Z,59.58
2017-12-12T18:36:48.078Z,59.71
2017-12-12T18:39:22.580Z,59.83
2017-12-12T18:44:30.789Z,60.25
2017-12-12T18:47:05.839Z,60.60
2017-12-12T18:49:40.408Z,60.67
2017-12-12T18:52:14.843Z,60.80
2017-12-12T18:54:49.278Z,61.09
2017-12-12T18:57:23.997Z,61.66
2017-12-12T18:59:58.470Z,61.98
2017-12-12T19:02:32.889Z,62.25
2017-12-12T19:05:14.396Z,62.17
2017-12-12T19:07:48.977Z,62.16
2017-12-12T19:10:23.353Z,62.29
2017-12-12T19:12:58.482Z,61.93
2017-12-12T19:15:32.999Z,61.88
2017-12-12T19:18:07.686Z,62.09
2017-12-12T19:20:42.214Z,62.20
2017-12-12T19:23:16.694Z,62.36
2017-12-12T19:25:51.158Z,62.59
2017-12-12T19:28:26.462Z,62.90
2017-12-12T19:31:01.034Z,63.15
2017-12-12T19:33:35.606Z,63.11
2017-12-12T19:36:10.071Z,63.24
2017-12-12T19:38:44.584Z,63.14
2017-12-12T19:41:18.990Z,63.24
2017-12-12T19:43:53.498Z,63.21
2017-12-12T19:46:27.922Z,63.35
2017-12-12T19:49:02.307Z,63.74
2017-12-12T19:51:36.769Z,63.88
2017-12-12T19:54:11.268Z,63.73
2017-12-12T19:56:45.661Z,64.24
2017-12-12T19:59:20.213Z,64.69
2017-12-12T20:01:55.633Z,64.78
2017-12-12T20:04:30.182Z,65.29
2017-12-12T20:07:04.615Z,65.67
2017-12-12T20:09:38.967Z,65.97
2017-12-12T20:12:13.310Z,66.02
2017-12-12T20:14:47.422Z,66.59
2017-12-12T20:17:22.336Z,66.99
2017-12-12T20:19:56.920Z,67.21
2017-12-12T20:22:31.869Z,67.67
2017-12-12T20:25:11.197Z,67.83
2017-12-12T20:27:45.778Z,68.26
2017-12-12T20:30:20.208Z,68.31
2017-12-12T20:32:54.734Z,68.42
2017-12-12T20:35:29.414Z,68.90
2017-12-12T20:38:04.068Z,68.82
2017-12-12T20:40:38.451Z,69.18
2017-12-12T20:43:12.814Z,69.48
2017-12-12T20:45:47.260Z,69.39
2017-12-12T20:48:21.742Z,69.58
2017-12-12T20:50:56.162Z,69.49
2017-12-12T20:53:30.730Z,69.71
2017-12-12T20:56:06.284Z,70.18
2017-12-12T20:58:40.777Z,70.59
2017-12-12T21:01:15.144Z,71.25
2017-12-12T21:03:49.621Z,71.58
2017-12-12T21:06:24.030Z,71.98
2017-12-12T21:08:58.506Z,72.34
2017-12-12T21:11:33.025Z,72.67
2017-12-12T21:14:07.580Z,73.13
2017-12-12T21:16:42.185Z,73.53
2017-12-12T21:19:16.572Z,73.69
2017-12-12T21:21:51.028Z,74.01
2017-12-12T21:24:26.138Z,74.30
2017-12-12T21:27:00.502Z,74.46
2017-12-12T21:29:34.977Z,74.76
2017-12-12T21:32:09.385Z,75.21
2017-12-12T21:34:43.831Z,75.29
2017-12-12T21:37:18.228Z,75.25
2017-12-12T21:39:52.744Z,75.18
2017-12-12T21:42:27.880Z,74.57
2017-12-12T21:45:02.566Z,74.28
2017-12-12T21:47:42.503Z,74.04
2017-12-12T21:50:18.717Z,74.13
2017-12-12T21:52:54.078Z,74.22
2017-12-12T21:55:29.552Z,74.27
2017-12-12T21:58:04.062Z,74.35
2017-12-12T22:00:38.531Z,74.29
2017-12-12T22:03:13.142Z,73.90
2017-12-12T22:05:48.295Z,73.71
2017-12-12T22:08:22.843Z,73.51
2017-12-12T22:10:57.224Z,73.20
2017-12-12T22:13:31.849Z,73.51
2017-12-12T22:16:06.427Z,73.66
2017-12-12T22:18:40.841Z,73.65
2017-12-12T22:21:15.926Z,73.78
2017-12-12T22:23:51.102Z,73.56
2017-12-12T22:26:25.902Z,73.76
2017-12-12T22:29:00.291Z,73.77
2017-12-12T22:31:35.935Z,73.84
2017-12-12T22:34:10.412Z,74.14
2017-12-12T22:36:44.762Z,74.43
2017-12-12T22:39:19.147Z,74.11
2017-12-12T22:41:53.484Z,74.24
2017-12-12T22:44:28.375Z,74.57
2017-12-12T22:47:02.830Z,74.49
2017-12-12T22:49:37.402Z,74.58
2017-12-12T22:52:11.795Z,74.46
2017-12-12T22:54:46.166Z,74.05
2017-12-12T22:57:20.591Z,73.73
2017-12-12T22:59:55.145Z,73.67
2017-12-12T23:02:29.606Z,73.23
2017-12-12T23:05:14.267Z,72.87
2017-12-12T23:07:48.837Z,72.69
2017-12-12T23:10:23.234Z,72.39
2017-12-12T23:12:59.313Z,72.22
2017-12-12T23:15:34.468Z,72.13
2017-12-12T23:18:08.917Z,71.99
2017-12-12T23:20:43.818Z,71.84
2017-12-12T23:23:18.430Z,71.97
2017-12-12T23:25:52.311Z,72.05
2017-12-12T23:28:26.894Z,71.87
2017-12-12T23:31:01.367Z,71.84
2017-12-12T23:33:35.744Z,71.78
2017-12-12T23:36:10.088Z,71.90
2017-12-12T23:38:44.939Z,71.82
2017-12-12T23:41:19.283Z,71.80
2017-12-12T23:43:53.672Z,71.53
2017-12-12T23:46:28.030Z,71.43
2017-12-12T23:49:02.387Z,71.23
2017-12-12T23:51:36.762Z,71.19
2017-12-12T23:54:11.151Z,70.83
2017-12-12T23:56:45.599Z,70.69
2017-12-12T23:59:20.409Z,70.84
